sensor_id;sensor_type;location;lat;lon;timestamp;P1;durP1;ratioP1;P2;durP2;ratioP2
5979;SDS011;3016;50.308;8.258;2023-06-14T00:02:32;21.00;;;6.37;;
5979;SDS011;3016;50.308;8.258;2023-06-14T00:05:33;23.05;;;6.40;;
5979;SDS011;3016;50.308;8.258;2023-06-14T00:08:38;20.20;;;6.47;;
5979;SDS011;3016;50.308;8.258;2023-06-14T00:11:41;21.80;;;7.00;;
5979;SDS011;3016;50.308;8.258;2023-06-14T00:14:41;21.07;;;6.40;;
5979;SDS011;3016;50.308;8.258;2023-06-14T00:17:42;21.30;;;6.50;;
5979;SDS011;3016;50.308;8.258;2023-06-14T00:20:47;20.10;;;6.23;;
5979;SDS011;3016;50.308;8.258;2023-06-14T00:23:48;21.60;;;6.27;;
5979;SDS011;3016;50.308;8.258;2023-06-14T00:26:49;20.80;;;6.10;;
5979;SDS011;3016;50.308;8.258;2023-06-14T00:29:49;21.70;;;6.50;;
5979;SDS011;3016;50.308;8.258;2023-06-14T00:32:50;20.37;;;6.53;;
5979;SDS011;3016;50.308;8.258;2023-06-14T00:35:51;23.40;;;7.23;;
5979;SDS011;3016;50.308;8.258;2023-06-14T00:38:53;22.80;;;7.37;;
5979;SDS011;3016;50.308;8.258;2023-06-14T00:41:54;20.07;;;5.80;;
5979;SDS011;3016;50.308;8.258;2023-06-14T00:44:55;20.77;;;6.37;;
5979;SDS011;3016;50.308;8.258;2023-06-14T00:47:55;20.57;;;6.70;;
5979;SDS011;3016;50.308;8.258;2023-06-14T00:50:56;20.97;;;6.37;;
5979;SDS011;3016;50.308;8.258;2023-06-14T00:53:57;23.47;;;6.67;;
5979;SDS011;3016;50.308;8.258;2023-06-14T00:56:58;21.27;;;7.57;;
5979;SDS011;3016;50.308;8.258;2023-06-14T00:59:59;22.53;;;6.60;;
5979;SDS011;3016;50.308;8.258;2023-06-14T01:03:00;20.50;;;6.27;;
5979;SDS011;3016;50.308;8.258;2023-06-14T01:13:35;19.20;;;6.00;;
5979;SDS011;3016;50.308;8.258;2023-06-14T01:16:39;19.83;;;6.60;;
5979;SDS011;3016;50.308;8.258;2023-06-14T01:19:41;20.60;;;6.30;;
5979;SDS011;3016;50.308;8.258;2023-06-14T01:22:50;20.40;;;5.90;;
5979;SDS011;3016;50.308;8.258;2023-06-14T01:25:52;21.73;;;6.80;;
5979;SDS011;3016;50.308;8.258;2023-06-14T01:28:53;22.50;;;7.47;;
5979;SDS011;3016;50.308;8.258;2023-06-14T01:32:01;21.60;;;7.00;;
5979;SDS011;3016;50.308;8.258;2023-06-14T01:35:03;20.90;;;7.13;;
5979;SDS011;3016;50.308;8.258;2023-06-14T01:38:05;21.67;;;6.90;;
5979;SDS011;3016;50.308;8.258;2023-06-14T01:41:08;20.63;;;6.63;;
5979;SDS011;3016;50.308;8.258;2023-06-14T01:44:09;20.10;;;6.77;;
5979;SDS011;3016;50.308;8.258;2023-06-14T01:47:12;20.90;;;6.67;;
5979;SDS011;3016;50.308;8.258;2023-06-14T01:50:13;20.87;;;6.30;;
5979;SDS011;3016;50.308;8.258;2023-06-14T01:53:14;21.13;;;7.10;;
5979;SDS011;3016;50.308;8.258;2023-06-14T01:56:15;21.63;;;7.20;;
5979;SDS011;3016;50.308;8.258;2023-06-14T01:59:16;21.70;;;6.90;;
5979;SDS011;3016;50.308;8.258;2023-06-14T02:02:17;22.30;;;6.50;;
5979;SDS011;3016;50.308;8.258;2023-06-14T02:05:17;20.97;;;5.70;;
5979;SDS011;3016;50.308;8.258;2023-06-14T02:08:18;19.63;;;6.17;;
5979;SDS011;3016;50.308;8.258;2023-06-14T02:11:19;21.53;;;6.60;;
5979;SDS011;3016;50.308;8.258;2023-06-14T02:14:20;20.80;;;6.80;;
5979;SDS011;3016;50.308;8.258;2023-06-14T02:17:20;21.63;;;6.73;;
5979;SDS011;3016;50.308;8.258;2023-06-14T02:20:21;23.20;;;7.57;;
5979;SDS011;3016;50.308;8.258;2023-06-14T02:23:22;22.17;;;6.63;;
5979;SDS011;3016;50.308;8.258;2023-06-14T02:26:23;20.13;;;5.73;;
5979;SDS011;3016;50.308;8.258;2023-06-14T02:29:23;20.20;;;6.20;;
5979;SDS011;3016;50.308;8.258;2023-06-14T02:32:24;22.42;;;7.20;;
5979;SDS011;3016;50.308;8.258;2023-06-14T02:35:26;20.70;;;6.40;;
5979;SDS011;3016;50.308;8.258;2023-06-14T02:38:27;24.00;;;6.90;;
5979;SDS011;3016;50.308;8.258;2023-06-14T02:41:28;23.40;;;6.60;;
5979;SDS011;3016;50.308;8.258;2023-06-14T02:44:29;20.37;;;6.27;;
5979;SDS011;3016;50.308;8.258;2023-06-14T02:47:30;20.00;;;6.77;;
5979;SDS011;3016;50.308;8.258;2023-06-14T02:50:31;19.63;;;6.53;;
5979;SDS011;3016;50.308;8.258;2023-06-14T02:53:32;21.30;;;6.33;;
5979;SDS011;3016;50.308;8.258;2023-06-14T02:56:33;22.40;;;6.27;;
5979;SDS011;3016;50.308;8.258;2023-06-14T02:59:34;23.87;;;6.23;;
5979;SDS011;3016;50.308;8.258;2023-06-14T03:02:35;21.83;;;6.70;;
5979;SDS011;3016;50.308;8.258;2023-06-14T03:05:36;21.60;;;7.00;;
5979;SDS011;3016;50.308;8.258;2023-06-14T03:08:36;21.60;;;6.30;;
5979;SDS011;3016;50.308;8.258;2023-06-14T03:11:41;21.60;;;7.50;;
5979;SDS011;3016;50.308;8.258;2023-06-14T03:14:42;22.13;;;7.50;;
5979;SDS011;3016;50.308;8.258;2023-06-14T03:17:45;21.90;;;6.57;;
5979;SDS011;3016;50.308;8.258;2023-06-14T03:20:49;22.97;;;6.80;;
5979;SDS011;3016;50.308;8.258;2023-06-14T03:23:51;21.00;;;6.77;;
5979;SDS011;3016;50.308;8.258;2023-06-14T03:26:53;23.37;;;6.53;;
5979;SDS011;3016;50.308;8.258;2023-06-14T03:29:54;21.33;;;6.23;;
5979;SDS011;3016;50.308;8.258;2023-06-14T03:32:54;21.53;;;7.33;;
5979;SDS011;3016;50.308;8.258;2023-06-14T03:35:55;20.80;;;6.97;;
5979;SDS011;3016;50.308;8.258;2023-06-14T03:38:56;22.10;;;7.33;;
5979;SDS011;3016;50.308;8.258;2023-06-14T03:41:57;23.60;;;6.53;;
5979;SDS011;3016;50.308;8.258;2023-06-14T03:44:57;21.47;;;6.57;;
5979;SDS011;3016;50.308;8.258;2023-06-14T03:47:58;22.70;;;6.60;;
5979;SDS011;3016;50.308;8.258;2023-06-14T03:51:00;20.83;;;6.60;;
5979;SDS011;3016;50.308;8.258;2023-06-14T03:54:02;22.83;;;7.07;;
5979;SDS011;3016;50.308;8.258;2023-06-14T03:57:02;20.87;;;6.33;;
5979;SDS011;3016;50.308;8.258;2023-06-14T04:00:04;21.40;;;7.30;;
5979;SDS011;3016;50.308;8.258;2023-06-14T04:03:06;24.83;;;7.57;;
5979;SDS011;3016;50.308;8.258;2023-06-14T04:06:06;23.00;;;8.00;;
5979;SDS011;3016;50.308;8.258;2023-06-14T04:09:07;21.43;;;8.73;;
5979;SDS011;3016;50.308;8.258;2023-06-14T04:12:08;20.93;;;7.57;;
5979;SDS011;3016;50.308;8.258;2023-06-14T04:15:11;22.40;;;6.93;;
5979;SDS011;3016;50.308;8.258;2023-06-14T04:18:12;24.73;;;6.63;;
5979;SDS011;3016;50.308;8.258;2023-06-14T04:21:13;20.73;;;6.70;;
5979;SDS011;3016;50.308;8.258;2023-06-14T04:24:13;22.00;;;7.60;;
5979;SDS011;3016;50.308;8.258;2023-06-14T04:27:14;21.67;;;7.80;;
5979;SDS011;3016;50.308;8.258;2023-06-14T04:30:21;22.17;;;7.20;;
5979;SDS011;3016;50.308;8.258;2023-06-14T04:33:27;22.70;;;6.43;;
5979;SDS011;3016;50.308;8.258;2023-06-14T04:36:27;21.40;;;7.07;;
5979;SDS011;3016;50.308;8.258;2023-06-14T04:39:28;22.13;;;6.80;;
5979;SDS011;3016;50.308;8.258;2023-06-14T04:42:29;19.50;;;5.30;;
5979;SDS011;3016;50.308;8.258;2023-06-14T04:45:31;20.57;;;5.60;;
5979;SDS011;3016;50.308;8.258;2023-06-14T04:48:32;21.87;;;6.10;;
5979;SDS011;3016;50.308;8.258;2023-06-14T04:51:32;20.30;;;5.70;;
5979;SDS011;3016;50.308;8.258;2023-06-14T04:54:33;20.67;;;6.07;;
5979;SDS011;3016;50.308;8.258;2023-06-14T04:57:37;20.87;;;5.83;;
5979;SDS011;3016;50.308;8.258;2023-06-14T05:00:38;21.80;;;5.33;;
5979;SDS011;3016;50.308;8.258;2023-06-14T05:03:39;19.07;;;4.97;;
5979;SDS011;3016;50.308;8.258;2023-06-14T05:06:39;21.83;;;5.27;;
5979;SDS011;3016;50.308;8.258;2023-06-14T05:09:40;18.97;;;4.70;;
5979;SDS011;3016;50.308;8.258;2023-06-14T05:12:41;21.50;;;5.20;;
5979;SDS011;3016;50.308;8.258;2023-06-14T05:15:43;22.90;;;5.60;;
5979;SDS011;3016;50.308;8.258;2023-06-14T05:18:44;22.10;;;5.67;;
5979;SDS011;3016;50.308;8.258;2023-06-14T05:21:47;19.00;;;5.00;;
5979;SDS011;3016;50.308;8.258;2023-06-14T05:24:47;19.00;;;5.50;;
5979;SDS011;3016;50.308;8.258;2023-06-14T05:27:48;19.73;;;5.10;;
5979;SDS011;3016;50.308;8.258;2023-06-14T05:30:49;24.40;;;5.00;;
5979;SDS011;3016;50.308;8.258;2023-06-14T05:33:51;21.10;;;5.70;;
5979;SDS011;3016;50.308;8.258;2023-06-14T05:36:52;18.43;;;4.63;;
5979;SDS011;3016;50.308;8.258;2023-06-14T05:39:52;22.03;;;4.57;;
5979;SDS011;3016;50.308;8.258;2023-06-14T05:42:53;19.10;;;5.27;;
5979;SDS011;3016;50.308;8.258;2023-06-14T05:45:54;18.53;;;4.27;;
5979;SDS011;3016;50.308;8.258;2023-06-14T05:48:54;20.30;;;4.67;;
5979;SDS011;3016;50.308;8.258;2023-06-14T05:51:56;20.43;;;4.90;;
5979;SDS011;3016;50.308;8.258;2023-06-14T05:54:56;19.33;;;4.90;;
5979;SDS011;3016;50.308;8.258;2023-06-14T05:57:57;21.03;;;4.40;;
5979;SDS011;3016;50.308;8.258;2023-06-14T06:00:57;17.53;;;3.83;;
5979;SDS011;3016;50.308;8.258;2023-06-14T06:03:58;19.37;;;4.90;;
5979;SDS011;3016;50.308;8.258;2023-06-14T06:06:59;28.13;;;5.23;;
5979;SDS011;3016;50.308;8.258;2023-06-14T06:10:00;19.67;;;4.83;;
5979;SDS011;3016;50.308;8.258;2023-06-14T06:13:01;18.20;;;4.23;;
5979;SDS011;3016;50.308;8.258;2023-06-14T06:16:02;19.13;;;4.63;;
5979;SDS011;3016;50.308;8.258;2023-06-14T06:19:03;20.67;;;4.50;;
5979;SDS011;3016;50.308;8.258;2023-06-14T06:22:07;23.33;;;4.33;;
5979;SDS011;3016;50.308;8.258;2023-06-14T06:25:08;21.70;;;4.17;;
5979;SDS011;3016;50.308;8.258;2023-06-14T06:28:09;19.73;;;4.10;;
5979;SDS011;3016;50.308;8.258;2023-06-14T06:31:11;18.87;;;4.13;;
5979;SDS011;3016;50.308;8.258;2023-06-14T06:34:12;19.30;;;3.83;;
5979;SDS011;3016;50.308;8.258;2023-06-14T06:37:13;18.30;;;3.90;;
5979;SDS011;3016;50.308;8.258;2023-06-14T06:40:14;19.13;;;3.87;;
5979;SDS011;3016;50.308;8.258;2023-06-14T06:43:14;18.10;;;4.03;;
5979;SDS011;3016;50.308;8.258;2023-06-14T06:46:17;19.50;;;4.13;;
5979;SDS011;3016;50.308;8.258;2023-06-14T06:49:18;18.10;;;3.57;;
5979;SDS011;3016;50.308;8.258;2023-06-14T06:52:19;18.87;;;3.60;;
5979;SDS011;3016;50.308;8.258;2023-06-14T06:55:20;18.90;;;4.00;;
5979;SDS011;3016;50.308;8.258;2023-06-14T06:58:20;21.10;;;3.97;;
5979;SDS011;3016;50.308;8.258;2023-06-14T07:01:22;23.63;;;3.90;;
5979;SDS011;3016;50.308;8.258;2023-06-14T07:04:24;17.40;;;3.20;;
5979;SDS011;3016;50.308;8.258;2023-06-14T07:07:25;21.10;;;3.40;;
5979;SDS011;3016;50.308;8.258;2023-06-14T07:10:25;19.00;;;3.17;;
5979;SDS011;3016;50.308;8.258;2023-06-14T07:13:26;20.63;;;3.53;;
5979;SDS011;3016;50.308;8.258;2023-06-14T07:16:27;18.33;;;3.80;;
5979;SDS011;3016;50.308;8.258;2023-06-14T07:19:27;17.83;;;3.07;;
5979;SDS011;3016;50.308;8.258;2023-06-14T07:22:28;19.87;;;3.50;;
5979;SDS011;3016;50.308;8.258;2023-06-14T07:25:28;17.60;;;3.00;;
5979;SDS011;3016;50.308;8.258;2023-06-14T07:28:29;17.37;;;2.77;;
5979;SDS011;3016;50.308;8.258;2023-06-14T07:31:30;19.00;;;3.00;;
5979;SDS011;3016;50.308;8.258;2023-06-14T07:34:30;18.63;;;2.90;;
5979;SDS011;3016;50.308;8.258;2023-06-14T07:37:31;17.70;;;2.80;;
5979;SDS011;3016;50.308;8.258;2023-06-14T07:40:32;20.73;;;3.20;;
5979;SDS011;3016;50.308;8.258;2023-06-14T07:43:32;17.20;;;2.40;;
5979;SDS011;3016;50.308;8.258;2023-06-14T07:46:33;17.93;;;2.50;;
5979;SDS011;3016;50.308;8.258;2023-06-14T07:49:34;17.20;;;2.17;;
5979;SDS011;3016;50.308;8.258;2023-06-14T07:52:35;19.70;;;2.20;;
5979;SDS011;3016;50.308;8.258;2023-06-14T07:55:35;17.00;;;2.37;;
5979;SDS011;3016;50.308;8.258;2023-06-14T07:58:39;18.70;;;2.43;;
5979;SDS011;3016;50.308;8.258;2023-06-14T08:01:40;17.23;;;2.27;;
5979;SDS011;3016;50.308;8.258;2023-06-14T08:04:47;17.47;;;2.30;;
5979;SDS011;3016;50.308;8.258;2023-06-14T08:07:48;23.03;;;3.00;;
5979;SDS011;3016;50.308;8.258;2023-06-14T08:10:49;18.50;;;2.73;;
5979;SDS011;3016;50.308;8.258;2023-06-14T08:13:49;17.70;;;2.80;;
5979;SDS011;3016;50.308;8.258;2023-06-14T08:16:50;18.93;;;2.40;;
5979;SDS011;3016;50.308;8.258;2023-06-14T08:19:51;18.00;;;2.73;;
5979;SDS011;3016;50.308;8.258;2023-06-14T08:22:52;17.60;;;2.33;;
5979;SDS011;3016;50.308;8.258;2023-06-14T08:25:56;22.90;;;2.53;;
5979;SDS011;3016;50.308;8.258;2023-06-14T08:28:57;18.40;;;2.77;;
5979;SDS011;3016;50.308;8.258;2023-06-14T08:31:58;18.33;;;2.80;;
5979;SDS011;3016;50.308;8.258;2023-06-14T08:34:59;19.50;;;2.67;;
5979;SDS011;3016;50.308;8.258;2023-06-14T08:37:59;17.77;;;2.87;;
5979;SDS011;3016;50.308;8.258;2023-06-14T08:41:00;17.20;;;2.50;;
5979;SDS011;3016;50.308;8.258;2023-06-14T08:44:02;17.97;;;2.20;;
5979;SDS011;3016;50.308;8.258;2023-06-14T08:47:05;17.57;;;2.50;;
5979;SDS011;3016;50.308;8.258;2023-06-14T08:50:08;17.40;;;2.37;;
5979;SDS011;3016;50.308;8.258;2023-06-14T08:53:09;17.13;;;2.33;;
5979;SDS011;3016;50.308;8.258;2023-06-14T08:56:19;17.67;;;2.67;;
5979;SDS011;3016;50.308;8.258;2023-06-14T08:59:20;17.57;;;2.47;;
5979;SDS011;3016;50.308;8.258;2023-06-14T09:02:21;16.97;;;2.20;;
5979;SDS011;3016;50.308;8.258;2023-06-14T09:05:25;17.80;;;2.00;;
5979;SDS011;3016;50.308;8.258;2023-06-14T09:08:27;17.57;;;2.20;;
5979;SDS011;3016;50.308;8.258;2023-06-14T09:11:31;19.77;;;2.53;;
5979;SDS011;3016;50.308;8.258;2023-06-14T09:14:33;17.33;;;2.20;;
5979;SDS011;3016;50.308;8.258;2023-06-14T09:17:38;17.10;;;2.33;;
5979;SDS011;3016;50.308;8.258;2023-06-14T09:20:39;19.33;;;3.10;;
5979;SDS011;3016;50.308;8.258;2023-06-14T09:23:41;19.43;;;2.47;;
5979;SDS011;3016;50.308;8.258;2023-06-14T09:26:48;20.90;;;3.50;;
5979;SDS011;3016;50.308;8.258;2023-06-14T09:29:51;17.40;;;2.30;;
5979;SDS011;3016;50.308;8.258;2023-06-14T09:32:52;20.20;;;2.60;;
5979;SDS011;3016;50.308;8.258;2023-06-14T09:35:54;17.50;;;2.33;;
5979;SDS011;3016;50.308;8.258;2023-06-14T09:38:55;17.13;;;2.63;;
5979;SDS011;3016;50.308;8.258;2023-06-14T09:41:58;17.87;;;2.77;;
5979;SDS011;3016;50.308;8.258;2023-06-14T09:44:58;18.10;;;2.40;;
5979;SDS011;3016;50.308;8.258;2023-06-14T09:48:00;17.87;;;2.90;;
5979;SDS011;3016;50.308;8.258;2023-06-14T09:51:01;17.30;;;2.50;;
5979;SDS011;3016;50.308;8.258;2023-06-14T09:54:02;17.40;;;2.40;;
5979;SDS011;3016;50.308;8.258;2023-06-14T09:57:06;18.53;;;2.90;;
5979;SDS011;3016;50.308;8.258;2023-06-14T10:00:12;19.73;;;2.73;;
5979;SDS011;3016;50.308;8.258;2023-06-14T10:03:24;17.27;;;2.10;;
5979;SDS011;3016;50.308;8.258;2023-06-14T10:06:28;17.23;;;2.30;;
5979;SDS011;3016;50.308;8.258;2023-06-14T10:09:30;20.37;;;2.40;;
5979;SDS011;3016;50.308;8.258;2023-06-14T10:12:31;17.57;;;2.30;;
5979;SDS011;3016;50.308;8.258;2023-06-14T10:15:34;20.10;;;2.70;;
5979;SDS011;3016;50.308;8.258;2023-06-14T10:22:16;17.00;;;1.87;;
5979;SDS011;3016;50.308;8.258;2023-06-14T10:25:28;17.77;;;2.90;;
5979;SDS011;3016;50.308;8.258;2023-06-14T10:28:30;18.30;;;2.20;;
5979;SDS011;3016;50.308;8.258;2023-06-14T10:31:48;17.63;;;2.43;;
5979;SDS011;3016;50.308;8.258;2023-06-14T10:35:00;16.90;;;2.40;;
5979;SDS011;3016;50.308;8.258;2023-06-14T10:38:11;18.90;;;2.70;;
5979;SDS011;3016;50.308;8.258;2023-06-14T10:41:12;19.70;;;3.57;;
5979;SDS011;3016;50.308;8.258;2023-06-14T10:50:29;18.70;;;2.80;;
5979;SDS011;3016;50.308;8.258;2023-06-14T10:53:30;17.73;;;3.10;;
5979;SDS011;3016;50.308;8.258;2023-06-14T10:56:50;18.70;;;3.30;;
5979;SDS011;3016;50.308;8.258;2023-06-14T10:59:52;17.77;;;2.70;;
5979;SDS011;3016;50.308;8.258;2023-06-14T11:06:48;19.83;;;3.03;;
5979;SDS011;3016;50.308;8.258;2023-06-14T11:13:01;19.53;;;2.90;;
5979;SDS011;3016;50.308;8.258;2023-06-14T11:16:03;18.63;;;2.77;;
5979;SDS011;3016;50.308;8.258;2023-06-14T11:19:12;18.30;;;2.87;;
5979;SDS011;3016;50.308;8.258;2023-06-14T11:22:12;17.70;;;2.83;;
5979;SDS011;3016;50.308;8.258;2023-06-14T11:25:15;17.30;;;2.70;;
5979;SDS011;3016;50.308;8.258;2023-06-14T11:28:15;17.80;;;3.00;;
5979;SDS011;3016;50.308;8.258;2023-06-14T11:31:16;17.20;;;2.70;;
5979;SDS011;3016;50.308;8.258;2023-06-14T11:34:20;17.50;;;2.70;;
5979;SDS011;3016;50.308;8.258;2023-06-14T11:37:21;17.33;;;2.77;;
5979;SDS011;3016;50.308;8.258;2023-06-14T11:40:24;17.27;;;2.83;;
5979;SDS011;3016;50.308;8.258;2023-06-14T11:43:36;19.90;;;2.70;;
5979;SDS011;3016;50.308;8.258;2023-06-14T11:46:43;18.47;;;3.03;;
5979;SDS011;3016;50.308;8.258;2023-06-14T11:49:45;17.70;;;2.60;;
5979;SDS011;3016;50.308;8.258;2023-06-14T11:52:53;17.30;;;2.70;;
5979;SDS011;3016;50.308;8.258;2023-06-14T11:56:07;18.20;;;3.07;;
5979;SDS011;3016;50.308;8.258;2023-06-14T11:59:08;19.60;;;3.33;;
5979;SDS011;3016;50.308;8.258;2023-06-14T12:02:09;19.87;;;2.83;;
5979;SDS011;3016;50.308;8.258;2023-06-14T12:05:10;17.67;;;2.37;;
5979;SDS011;3016;50.308;8.258;2023-06-14T12:08:10;17.40;;;2.60;;
5979;SDS011;3016;50.308;8.258;2023-06-14T12:11:19;16.67;;;2.37;;
5979;SDS011;3016;50.308;8.258;2023-06-14T12:14:20;17.50;;;2.80;;
5979;SDS011;3016;50.308;8.258;2023-06-14T12:17:20;19.57;;;3.17;;
5979;SDS011;3016;50.308;8.258;2023-06-14T12:20:22;17.40;;;2.50;;
5979;SDS011;3016;50.308;8.258;2023-06-14T12:23:23;17.30;;;2.20;;
5979;SDS011;3016;50.308;8.258;2023-06-14T12:26:24;19.00;;;2.80;;
5979;SDS011;3016;50.308;8.258;2023-06-14T12:29:27;17.83;;;3.07;;
5979;SDS011;3016;50.308;8.258;2023-06-14T12:32:28;16.70;;;2.17;;
5979;SDS011;3016;50.308;8.258;2023-06-14T12:35:29;17.90;;;3.00;;
5979;SDS011;3016;50.308;8.258;2023-06-14T12:38:30;19.10;;;2.63;;
5979;SDS011;3016;50.308;8.258;2023-06-14T12:41:31;17.70;;;2.40;;
5979;SDS011;3016;50.308;8.258;2023-06-14T12:44:32;17.90;;;2.83;;
5979;SDS011;3016;50.308;8.258;2023-06-14T12:47:35;17.90;;;2.87;;
5979;SDS011;3016;50.308;8.258;2023-06-14T12:50:36;17.67;;;2.50;;
5979;SDS011;3016;50.308;8.258;2023-06-14T12:53:37;17.33;;;2.50;;
5979;SDS011;3016;50.308;8.258;2023-06-14T12:56:37;18.10;;;2.70;;
5979;SDS011;3016;50.308;8.258;2023-06-14T12:59:38;17.80;;;2.50;;
5979;SDS011;3016;50.308;8.258;2023-06-14T13:02:39;17.80;;;2.60;;
5979;SDS011;3016;50.308;8.258;2023-06-14T13:05:40;18.30;;;2.00;;
5979;SDS011;3016;50.308;8.258;2023-06-14T13:08:41;17.17;;;2.60;;
5979;SDS011;3016;50.308;8.258;2023-06-14T13:11:42;18.37;;;2.80;;
5979;SDS011;3016;50.308;8.258;2023-06-14T13:14:45;17.80;;;2.70;;
5979;SDS011;3016;50.308;8.258;2023-06-14T13:17:46;18.03;;;2.30;;
5979;SDS011;3016;50.308;8.258;2023-06-14T13:20:48;17.67;;;2.80;;
5979;SDS011;3016;50.308;8.258;2023-06-14T13:23:49;18.47;;;3.47;;
5979;SDS011;3016;50.308;8.258;2023-06-14T13:26:50;18.50;;;3.17;;
5979;SDS011;3016;50.308;8.258;2023-06-14T13:29:51;20.60;;;3.10;;
5979;SDS011;3016;50.308;8.258;2023-06-14T13:32:51;18.93;;;2.73;;
5979;SDS011;3016;50.308;8.258;2023-06-14T13:35:52;17.50;;;2.90;;
5979;SDS011;3016;50.308;8.258;2023-06-14T13:38:53;18.73;;;3.00;;
5979;SDS011;3016;50.308;8.258;2023-06-14T13:41:54;17.93;;;2.77;;
5979;SDS011;3016;50.308;8.258;2023-06-14T13:44:55;17.07;;;2.53;;
5979;SDS011;3016;50.308;8.258;2023-06-14T13:47:56;17.70;;;2.93;;
5979;SDS011;3016;50.308;8.258;2023-06-14T13:50:56;17.10;;;2.60;;
5979;SDS011;3016;50.308;8.258;2023-06-14T13:54:00;18.30;;;3.20;;
5979;SDS011;3016;50.308;8.258;2023-06-14T13:57:01;18.60;;;3.00;;
5979;SDS011;3016;50.308;8.258;2023-06-14T14:00:01;18.57;;;2.90;;
5979;SDS011;3016;50.308;8.258;2023-06-14T14:03:03;20.77;;;3.70;;
5979;SDS011;3016;50.308;8.258;2023-06-14T14:06:04;18.00;;;3.20;;
5979;SDS011;3016;50.308;8.258;2023-06-14T14:09:06;23.10;;;3.03;;
5979;SDS011;3016;50.308;8.258;2023-06-14T14:12:08;18.00;;;3.50;;
5979;SDS011;3016;50.308;8.258;2023-06-14T14:15:08;19.40;;;3.33;;
5979;SDS011;3016;50.308;8.258;2023-06-14T14:18:12;17.97;;;3.07;;
5979;SDS011;3016;50.308;8.258;2023-06-14T14:21:14;17.30;;;2.80;;
5979;SDS011;3016;50.308;8.258;2023-06-14T14:24:15;17.77;;;3.17;;
5979;SDS011;3016;50.308;8.258;2023-06-14T14:27:16;21.23;;;3.40;;
5979;SDS011;3016;50.308;8.258;2023-06-14T14:30:17;18.17;;;2.60;;
5979;SDS011;3016;50.308;8.258;2023-06-14T14:33:20;18.67;;;2.87;;
5979;SDS011;3016;50.308;8.258;2023-06-14T14:36:21;20.77;;;3.50;;
5979;SDS011;3016;50.308;8.258;2023-06-14T14:39:22;17.70;;;2.60;;
5979;SDS011;3016;50.308;8.258;2023-06-14T14:42:22;18.27;;;2.70;;
5979;SDS011;3016;50.308;8.258;2023-06-14T14:45:23;17.47;;;2.80;;
5979;SDS011;3016;50.308;8.258;2023-06-14T14:48:24;18.43;;;3.00;;
5979;SDS011;3016;50.308;8.258;2023-06-14T14:51:25;17.97;;;2.90;;
5979;SDS011;3016;50.308;8.258;2023-06-14T14:54:25;17.77;;;2.80;;
5979;SDS011;3016;50.308;8.258;2023-06-14T14:57:26;18.90;;;3.27;;
5979;SDS011;3016;50.308;8.258;2023-06-14T15:00:27;17.67;;;3.10;;
5979;SDS011;3016;50.308;8.258;2023-06-14T15:03:28;18.10;;;3.00;;
5979;SDS011;3016;50.308;8.258;2023-06-14T15:06:28;18.20;;;2.83;;
5979;SDS011;3016;50.308;8.258;2023-06-14T15:09:29;19.60;;;3.07;;
5979;SDS011;3016;50.308;8.258;2023-06-14T15:12:30;19.00;;;3.40;;
5979;SDS011;3016;50.308;8.258;2023-06-14T15:15:30;19.13;;;2.83;;
5979;SDS011;3016;50.308;8.258;2023-06-14T15:18:31;16.87;;;2.40;;
5979;SDS011;3016;50.308;8.258;2023-06-14T15:21:31;18.00;;;3.27;;
5979;SDS011;3016;50.308;8.258;2023-06-14T15:24:32;21.00;;;3.30;;
5979;SDS011;3016;50.308;8.258;2023-06-14T15:27:33;19.47;;;3.00;;
5979;SDS011;3016;50.308;8.258;2023-06-14T15:30:33;18.13;;;2.93;;
5979;SDS011;3016;50.308;8.258;2023-06-14T15:33:34;17.90;;;2.87;;
5979;SDS011;3016;50.308;8.258;2023-06-14T15:36:35;17.87;;;3.10;;
5979;SDS011;3016;50.308;8.258;2023-06-14T15:39:36;18.37;;;3.17;;
5979;SDS011;3016;50.308;8.258;2023-06-14T15:42:36;17.90;;;3.20;;
5979;SDS011;3016;50.308;8.258;2023-06-14T15:45:37;17.70;;;3.23;;
5979;SDS011;3016;50.308;8.258;2023-06-14T15:48:39;20.73;;;3.70;;
5979;SDS011;3016;50.308;8.258;2023-06-14T15:51:40;18.87;;;3.10;;
5979;SDS011;3016;50.308;8.258;2023-06-14T15:54:41;19.17;;;3.80;;
5979;SDS011;3016;50.308;8.258;2023-06-14T15:57:41;17.70;;;3.63;;
5979;SDS011;3016;50.308;8.258;2023-06-14T16:00:42;18.40;;;3.10;;
5979;SDS011;3016;50.308;8.258;2023-06-14T16:03:43;19.73;;;3.63;;
5979;SDS011;3016;50.308;8.258;2023-06-14T16:06:43;19.50;;;3.73;;
5979;SDS011;3016;50.308;8.258;2023-06-14T16:09:44;17.17;;;2.80;;
5979;SDS011;3016;50.308;8.258;2023-06-14T16:12:45;19.47;;;3.40;;
5979;SDS011;3016;50.308;8.258;2023-06-14T16:15:45;18.40;;;3.20;;
5979;SDS011;3016;50.308;8.258;2023-06-14T16:18:46;19.20;;;3.30;;
5979;SDS011;3016;50.308;8.258;2023-06-14T16:21:47;18.17;;;3.53;;
5979;SDS011;3016;50.308;8.258;2023-06-14T16:24:48;24.53;;;3.40;;
5979;SDS011;3016;50.308;8.258;2023-06-14T16:27:48;20.60;;;2.97;;
5979;SDS011;3016;50.308;8.258;2023-06-14T16:30:50;17.70;;;3.53;;
5979;SDS011;3016;50.308;8.258;2023-06-14T16:33:50;18.97;;;3.90;;
5979;SDS011;3016;50.308;8.258;2023-06-14T16:36:54;21.53;;;3.97;;
5979;SDS011;3016;50.308;8.258;2023-06-14T16:39:55;18.30;;;3.27;;
5979;SDS011;3016;50.308;8.258;2023-06-14T16:42:55;18.13;;;3.33;;
5979;SDS011;3016;50.308;8.258;2023-06-14T16:45:56;18.40;;;3.33;;
5979;SDS011;3016;50.308;8.258;2023-06-14T16:48:57;18.27;;;3.23;;
5979;SDS011;3016;50.308;8.258;2023-06-14T16:51:58;18.23;;;3.27;;
5979;SDS011;3016;50.308;8.258;2023-06-14T16:54:59;18.40;;;3.40;;
5979;SDS011;3016;50.308;8.258;2023-06-14T16:58:00;17.50;;;3.10;;
5979;SDS011;3016;50.308;8.258;2023-06-14T17:01:01;17.23;;;3.00;;
5979;SDS011;3016;50.308;8.258;2023-06-14T17:04:02;18.70;;;3.30;;
5979;SDS011;3016;50.308;8.258;2023-06-14T17:07:02;18.20;;;3.40;;
5979;SDS011;3016;50.308;8.258;2023-06-14T17:10:04;17.27;;;2.80;;
5979;SDS011;3016;50.308;8.258;2023-06-14T17:13:05;18.07;;;3.20;;
5979;SDS011;3016;50.308;8.258;2023-06-14T17:16:06;17.73;;;3.70;;
5979;SDS011;3016;50.308;8.258;2023-06-14T17:19:07;18.40;;;3.40;;
5979;SDS011;3016;50.308;8.258;2023-06-14T17:22:07;18.57;;;3.77;;
5979;SDS011;3016;50.308;8.258;2023-06-14T17:25:08;19.40;;;3.17;;
5979;SDS011;3016;50.308;8.258;2023-06-14T17:28:09;18.30;;;3.20;;
5979;SDS011;3016;50.308;8.258;2023-06-14T17:31:10;18.30;;;3.10;;
5979;SDS011;3016;50.308;8.258;2023-06-14T17:34:11;18.60;;;3.60;;
5979;SDS011;3016;50.308;8.258;2023-06-14T17:37:11;18.13;;;3.20;;
5979;SDS011;3016;50.308;8.258;2023-06-14T17:40:12;19.80;;;3.70;;
5979;SDS011;3016;50.308;8.258;2023-06-14T17:43:13;18.27;;;3.50;;
5979;SDS011;3016;50.308;8.258;2023-06-14T17:46:14;18.10;;;3.30;;
5979;SDS011;3016;50.308;8.258;2023-06-14T17:49:15;20.67;;;3.00;;
5979;SDS011;3016;50.308;8.258;2023-06-14T17:52:15;18.27;;;3.13;;
5979;SDS011;3016;50.308;8.258;2023-06-14T17:55:17;18.23;;;3.70;;
5979;SDS011;3016;50.308;8.258;2023-06-14T17:58:17;18.40;;;3.00;;
5979;SDS011;3016;50.308;8.258;2023-06-14T18:01:18;19.33;;;3.40;;
5979;SDS011;3016;50.308;8.258;2023-06-14T18:04:20;19.20;;;3.30;;
5979;SDS011;3016;50.308;8.258;2023-06-14T18:07:21;17.63;;;3.47;;
5979;SDS011;3016;50.308;8.258;2023-06-14T18:10:22;17.53;;;3.17;;
5979;SDS011;3016;50.308;8.258;2023-06-14T18:13:22;17.20;;;3.00;;
5979;SDS011;3016;50.308;8.258;2023-06-14T18:16:23;18.43;;;3.67;;
5979;SDS011;3016;50.308;8.258;2023-06-14T18:19:24;18.70;;;3.53;;
5979;SDS011;3016;50.308;8.258;2023-06-14T18:22:28;17.63;;;3.40;;
5979;SDS011;3016;50.308;8.258;2023-06-14T18:25:29;18.10;;;3.43;;
5979;SDS011;3016;50.308;8.258;2023-06-14T18:28:30;19.23;;;3.60;;
5979;SDS011;3016;50.308;8.258;2023-06-14T18:31:30;21.53;;;3.60;;
5979;SDS011;3016;50.308;8.258;2023-06-14T18:34:31;18.00;;;3.70;;
5979;SDS011;3016;50.308;8.258;2023-06-14T18:37:32;17.37;;;2.97;;
5979;SDS011;3016;50.308;8.258;2023-06-14T18:40:33;18.00;;;3.40;;
5979;SDS011;3016;50.308;8.258;2023-06-14T18:43:36;17.90;;;3.10;;
5979;SDS011;3016;50.308;8.258;2023-06-14T18:46:36;18.00;;;3.40;;
5979;SDS011;3016;50.308;8.258;2023-06-14T18:49:37;19.13;;;4.00;;
5979;SDS011;3016;50.308;8.258;2023-06-14T18:52:39;17.80;;;3.10;;
5979;SDS011;3016;50.308;8.258;2023-06-14T18:55:40;17.73;;;3.13;;